sensor_id;sensor_type;location;lat;lon;timestamp;temperature;humidity
19734;DHT22;10018;51.230;7.860;2023-04-06T00:01:45;0.50;99.90
19734;DHT22;10018;51.230;7.860;2023-04-06T00:04:12;0.50;99.90
19734;DHT22;10018;51.230;7.860;2023-04-06T00:06:37;0.50;99.90
19734;DHT22;10018;51.230;7.860;2023-04-06T00:09:06;0.50;99.90
19734;DHT22;10018;51.230;7.860;2023-04-06T00:11:34;0.50;99.90
19734;DHT22;10018;51.230;7.860;2023-04-06T00:13:59;0.50;99.90
19734;DHT22;10018;51.230;7.860;2023-04-06T00:16:25;0.50;99.90
19734;DHT22;10018;51.230;7.860;2023-04-06T00:18:51;0.50;99.90
19734;DHT22;10018;51.230;7.860;2023-04-06T00:21:17;0.50;99.90
19734;DHT22;10018;51.230;7.860;2023-04-06T00:23:43;0.50;99.90
19734;DHT22;10018;51.230;7.860;2023-04-06T00:26:09;0.50;99.90
19734;DHT22;10018;51.230;7.860;2023-04-06T00:28:36;0.40;99.90
19734;DHT22;10018;51.230;7.860;2023-04-06T00:31:04;0.40;99.90
19734;DHT22;10018;51.230;7.860;2023-04-06T00:33:30;0.40;99.90
19734;DHT22;10018;51.230;7.860;2023-04-06T00:35:56;0.30;99.90
19734;DHT22;10018;51.230;7.860;2023-04-06T00:38:22;0.30;99.90
19734;DHT22;10018;51.230;7.860;2023-04-06T00:40:50;0.30;99.90
19734;DHT22;10018;51.230;7.860;2023-04-06T00:43:16;0.20;99.90
19734;DHT22;10018;51.230;7.860;2023-04-06T00:45:42;0.20;99.90
19734;DHT22;10018;51.230;7.860;2023-04-06T00:48:08;0.20;99.90
19734;DHT22;10018;51.230;7.860;2023-04-06T00:50:34;0.20;99.90
19734;DHT22;10018;51.230;7.860;2023-04-06T00:53:00;0.20;99.90
19734;DHT22;10018;51.230;7.860;2023-04-06T00:55:27;0.10;99.90
19734;DHT22;10018;51.230;7.860;2023-04-06T00:57:53;0.10;99.90
19734;DHT22;10018;51.230;7.860;2023-04-06T01:00:19;0.10;99.90
19734;DHT22;10018;51.230;7.860;2023-04-06T01:02:46;0.10;99.90
19734;DHT22;10018;51.230;7.860;2023-04-06T01:05:12;0.10;99.90
19734;DHT22;10018;51.230;7.860;2023-04-06T01:07:40;0.00;99.90
19734;DHT22;10018;51.230;7.860;2023-04-06T01:10:06;0.00;99.90
19734;DHT22;10018;51.230;7.860;2023-04-06T01:12:31;0.00;99.90
19734;DHT22;10018;51.230;7.860;2023-04-06T01:14:57;0.00;99.90
19734;DHT22;10018;51.230;7.860;2023-04-06T01:17:23;0.00;99.90
19734;DHT22;10018;51.230;7.860;2023-04-06T01:19:51;0.00;99.90
19734;DHT22;10018;51.230;7.860;2023-04-06T01:22:19;0.00;99.90
19734;DHT22;10018;51.230;7.860;2023-04-06T01:24:45;0.00;99.90
19734;DHT22;10018;51.230;7.860;2023-04-06T01:27:12;0.00;99.90
19734;DHT22;10018;51.230;7.860;2023-04-06T01:29:38;-0.10;99.90
19734;DHT22;10018;51.230;7.860;2023-04-06T01:32:07;-0.10;99.90
19734;DHT22;10018;51.230;7.860;2023-04-06T01:34:35;-0.10;99.90
19734;DHT22;10018;51.230;7.860;2023-04-06T01:37:01;-0.10;99.90
19734;DHT22;10018;51.230;7.860;2023-04-06T01:39:29;-0.10;99.90
19734;DHT22;10018;51.230;7.860;2023-04-06T01:41:57;-0.10;99.90
19734;DHT22;10018;51.230;7.860;2023-04-06T01:44:22;-0.10;99.90
19734;DHT22;10018;51.230;7.860;2023-04-06T01:46:48;-0.10;99.90
19734;DHT22;10018;51.230;7.860;2023-04-06T01:49:16;-0.10;99.90
19734;DHT22;10018;51.230;7.860;2023-04-06T01:51:44;-0.10;99.90
19734;DHT22;10018;51.230;7.860;2023-04-06T01:54:10;-0.20;99.90
19734;DHT22;10018;51.230;7.860;2023-04-06T01:56:35;-0.20;99.90
19734;DHT22;10018;51.230;7.860;2023-04-06T01:59:01;-0.20;99.90
19734;DHT22;10018;51.230;7.860;2023-04-06T02:01:29;-0.20;99.90
19734;DHT22;10018;51.230;7.860;2023-04-06T02:03:55;-0.30;99.90
19734;DHT22;10018;51.230;7.860;2023-04-06T02:06:21;-0.30;99.90
19734;DHT22;10018;51.230;7.860;2023-04-06T02:08:46;-0.30;99.90
19734;DHT22;10018;51.230;7.860;2023-04-06T02:11:12;-0.30;99.90
19734;DHT22;10018;51.230;7.860;2023-04-06T02:13:37;-0.30;99.90
19734;DHT22;10018;51.230;7.860;2023-04-06T02:16:03;-0.30;99.90
19734;DHT22;10018;51.230;7.860;2023-04-06T02:18:32;-0.30;99.90
19734;DHT22;10018;51.230;7.860;2023-04-06T02:20:57;-0.30;99.90
19734;DHT22;10018;51.230;7.860;2023-04-06T02:23:23;-0.30;99.90
19734;DHT22;10018;51.230;7.860;2023-04-06T02:25:49;-0.40;99.90
19734;DHT22;10018;51.230;7.860;2023-04-06T02:28:14;-0.40;99.90
19734;DHT22;10018;51.230;7.860;2023-04-06T02:30:40;-0.40;99.90
19734;DHT22;10018;51.230;7.860;2023-04-06T02:33:06;-0.40;99.90
19734;DHT22;10018;51.230;7.860;2023-04-06T02:35:32;-0.40;99.90
19734;DHT22;10018;51.230;7.860;2023-04-06T02:37:57;-0.40;99.90
19734;DHT22;10018;51.230;7.860;2023-04-06T02:40:23;-0.50;99.90
19734;DHT22;10018;51.230;7.860;2023-04-06T02:42:49;-0.40;99.90
19734;DHT22;10018;51.230;7.860;2023-04-06T02:45:14;-0.40;99.90
19734;DHT22;10018;51.230;7.860;2023-04-06T02:47:42;-0.40;99.90
19734;DHT22;10018;51.230;7.860;2023-04-06T02:50:08;-0.50;99.90
19734;DHT22;10018;51.230;7.860;2023-04-06T02:52:34;-0.50;99.90
19734;DHT22;10018;51.230;7.860;2023-04-06T02:55:00;-0.50;99.90
19734;DHT22;10018;51.230;7.860;2023-04-06T02:57:25;-0.50;99.90
19734;DHT22;10018;51.230;7.860;2023-04-06T02:59:53;-0.60;99.90
19734;DHT22;10018;51.230;7.860;2023-04-06T03:02:19;-0.50;99.90
19734;DHT22;10018;51.230;7.860;2023-04-06T03:04:47;-0.50;99.90
19734;DHT22;10018;51.230;7.860;2023-04-06T03:07:12;-0.60;99.90
19734;DHT22;10018;51.230;7.860;2023-04-06T03:09:40;-0.60;99.90
19734;DHT22;10018;51.230;7.860;2023-04-06T03:12:06;-0.60;99.90
19734;DHT22;10018;51.230;7.860;2023-04-06T03:14:32;-0.70;99.90
19734;DHT22;10018;51.230;7.860;2023-04-06T03:16:58;-0.70;99.90
19734;DHT22;10018;51.230;7.860;2023-04-06T03:19:23;-0.70;99.90
19734;DHT22;10018;51.230;7.860;2023-04-06T03:21:49;-0.70;99.90
19734;DHT22;10018;51.230;7.860;2023-04-06T03:24:15;-0.80;99.90
19734;DHT22;10018;51.230;7.860;2023-04-06T03:26:41;-0.80;99.90
19734;DHT22;10018;51.230;7.860;2023-04-06T03:29:06;-0.80;99.90
19734;DHT22;10018;51.230;7.860;2023-04-06T03:31:32;-0.80;99.90
19734;DHT22;10018;51.230;7.860;2023-04-06T03:33:57;-0.80;99.90
19734;DHT22;10018;51.230;7.860;2023-04-06T03:36:24;-0.90;99.90
19734;DHT22;10018;51.230;7.860;2023-04-06T03:38:51;-0.90;99.90
19734;DHT22;10018;51.230;7.860;2023-04-06T03:41:18;-0.90;99.90
19734;DHT22;10018;51.230;7.860;2023-04-06T03:43:45;-0.90;99.90
19734;DHT22;10018;51.230;7.860;2023-04-06T03:46:11;-0.90;99.90
19734;DHT22;10018;51.230;7.860;2023-04-06T03:48:37;-0.90;99.90
19734;DHT22;10018;51.230;7.860;2023-04-06T03:51:02;-0.90;99.90
19734;DHT22;10018;51.230;7.860;2023-04-06T03:53:28;-0.90;99.90
19734;DHT22;10018;51.230;7.860;2023-04-06T03:55:54;-0.90;99.90
19734;DHT22;10018;51.230;7.860;2023-04-06T03:58:19;-1.00;99.90
19734;DHT22;10018;51.230;7.860;2023-04-06T04:00:45;-1.00;99.90
19734;DHT22;10018;51.230;7.860;2023-04-06T04:03:10;-1.00;99.90
19734;DHT22;10018;51.230;7.860;2023-04-06T04:05:36;-1.00;99.90
19734;DHT22;10018;51.230;7.860;2023-04-06T04:08:02;-1.00;99.90
19734;DHT22;10018;51.230;7.860;2023-04-06T04:10:27;-1.00;99.90
19734;DHT22;10018;51.230;7.860;2023-04-06T04:12:53;-1.00;99.90
19734;DHT22;10018;51.230;7.860;2023-04-06T04:15:19;-1.00;99.90
19734;DHT22;10018;51.230;7.860;2023-04-06T04:17:44;-1.00;99.90
19734;DHT22;10018;51.230;7.860;2023-04-06T04:20:12;-1.00;99.90
19734;DHT22;10018;51.230;7.860;2023-04-06T04:22:38;-1.00;99.90
19734;DHT22;10018;51.230;7.860;2023-04-06T04:25:04;-1.00;99.90
19734;DHT22;10018;51.230;7.860;2023-04-06T04:27:30;-1.00;99.90
19734;DHT22;10018;51.230;7.860;2023-04-06T04:29:55;-1.00;99.90
19734;DHT22;10018;51.230;7.860;2023-04-06T04:32:23;-1.00;99.90
19734;DHT22;10018;51.230;7.860;2023-04-06T04:34:53;-1.00;99.90
19734;DHT22;10018;51.230;7.860;2023-04-06T04:37:18;-1.00;99.90
19734;DHT22;10018;51.230;7.860;2023-04-06T04:39:45;-1.10;99.90
19734;DHT22;10018;51.230;7.860;2023-04-06T04:42:10;-1.10;99.90
19734;DHT22;10018;51.230;7.860;2023-04-06T04:44:36;-1.10;99.90
19734;DHT22;10018;51.230;7.860;2023-04-06T04:47:02;-1.10;99.90
19734;DHT22;10018;51.230;7.860;2023-04-06T04:49:27;-1.10;99.90
19734;DHT22;10018;51.230;7.860;2023-04-06T04:51:53;-1.20;99.90
19734;DHT22;10018;51.230;7.860;2023-04-06T04:54:19;-1.10;99.90
19734;DHT22;10018;51.230;7.860;2023-04-06T04:56:45;-1.10;99.90
19734;DHT22;10018;51.230;7.860;2023-04-06T04:59:11;-1.10;99.90
19734;DHT22;10018;51.230;7.860;2023-04-06T05:01:36;-1.20;99.90
19734;DHT22;10018;51.230;7.860;2023-04-06T05:04:02;-1.10;99.90
19734;DHT22;10018;51.230;7.860;2023-04-06T05:06:28;-1.10;99.90
19734;DHT22;10018;51.230;7.860;2023-04-06T05:08:53;-1.20;99.90
19734;DHT22;10018;51.230;7.860;2023-04-06T05:11:19;-1.10;99.90
19734;DHT22;10018;51.230;7.860;2023-04-06T05:13:45;-1.10;99.90
19734;DHT22;10018;51.230;7.860;2023-04-06T05:16:11;-1.10;99.90
19734;DHT22;10018;51.230;7.860;2023-04-06T05:18:36;-1.10;99.90
19734;DHT22;10018;51.230;7.860;2023-04-06T05:21:04;-1.00;99.90
19734;DHT22;10018;51.230;7.860;2023-04-06T05:23:32;-1.10;99.90
19734;DHT22;10018;51.230;7.860;2023-04-06T05:25:58;-1.00;99.90
19734;DHT22;10018;51.230;7.860;2023-04-06T05:28:24;-1.00;99.90
19734;DHT22;10018;51.230;7.860;2023-04-06T05:30:50;-1.00;99.90
19734;DHT22;10018;51.230;7.860;2023-04-06T05:33:18;-1.00;99.90
19734;DHT22;10018;51.230;7.860;2023-04-06T05:35:44;-0.90;99.90
19734;DHT22;10018;51.230;7.860;2023-04-06T05:38:09;-0.90;99.90
19734;DHT22;10018;51.230;7.860;2023-04-06T05:40:36;-0.80;99.90
19734;DHT22;10018;51.230;7.860;2023-04-06T05:43:03;-0.80;99.90
19734;DHT22;10018;51.230;7.860;2023-04-06T05:45:29;-0.80;99.90
19734;DHT22;10018;51.230;7.860;2023-04-06T05:47:55;-0.70;99.90
19734;DHT22;10018;51.230;7.860;2023-04-06T05:50:21;-0.80;99.90
19734;DHT22;10018;51.230;7.860;2023-04-06T05:52:47;-0.70;99.90
19734;DHT22;10018;51.230;7.860;2023-04-06T05:55:18;-0.60;99.90
19734;DHT22;10018;51.230;7.860;2023-04-06T05:57:43;-0.50;99.90
19734;DHT22;10018;51.230;7.860;2023-04-06T06:00:10;-0.40;99.90
19734;DHT22;10018;51.230;7.860;2023-04-06T06:02:36;-0.30;99.90
19734;DHT22;10018;51.230;7.860;2023-04-06T06:05:02;-0.10;99.90
19734;DHT22;10018;51.230;7.860;2023-04-06T06:07:27;0.00;99.90
19734;DHT22;10018;51.230;7.860;2023-04-06T06:09:58;0.20;99.90
19734;DHT22;10018;51.230;7.860;2023-04-06T06:12:24;0.40;99.90
19734;DHT22;10018;51.230;7.860;2023-04-06T06:14:50;0.50;99.90
19734;DHT22;10018;51.230;7.860;2023-04-06T06:17:16;0.60;99.90
19734;DHT22;10018;51.230;7.860;2023-04-06T06:19:44;0.80;99.90
19734;DHT22;10018;51.230;7.860;2023-04-06T06:22:09;0.90;99.90
19734;DHT22;10018;51.230;7.860;2023-04-06T06:24:38;1.10;99.90
19734;DHT22;10018;51.230;7.860;2023-04-06T06:27:03;1.10;99.90
19734;DHT22;10018;51.230;7.860;2023-04-06T06:29:29;1.30;99.90
19734;DHT22;10018;51.230;7.860;2023-04-06T06:31:55;1.30;99.90
19734;DHT22;10018;51.230;7.860;2023-04-06T06:34:20;1.40;99.90
19734;DHT22;10018;51.230;7.860;2023-04-06T06:36:48;1.40;99.90
19734;DHT22;10018;51.230;7.860;2023-04-06T06:39:14;1.60;99.90
19734;DHT22;10018;51.230;7.860;2023-04-06T06:41:40;1.70;99.90
19734;DHT22;10018;51.230;7.860;2023-04-06T06:44:05;1.70;99.90
19734;DHT22;10018;51.230;7.860;2023-04-06T06:46:31;1.70;99.90
19734;DHT22;10018;51.230;7.860;2023-04-06T06:48:59;1.70;99.90
19734;DHT22;10018;51.230;7.860;2023-04-06T06:51:27;1.90;99.90
19734;DHT22;10018;51.230;7.860;2023-04-06T06:53:53;2.10;99.90
19734;DHT22;10018;51.230;7.860;2023-04-06T06:56:18;2.30;99.90
19734;DHT22;10018;51.230;7.860;2023-04-06T06:58:44;2.50;99.90
19734;DHT22;10018;51.230;7.860;2023-04-06T07:01:10;2.60;99.90
19734;DHT22;10018;51.230;7.860;2023-04-06T07:03:36;2.70;99.90
19734;DHT22;10018;51.230;7.860;2023-04-06T07:06:01;2.80;99.90
19734;DHT22;10018;51.230;7.860;2023-04-06T07:08:27;2.90;99.90
19734;DHT22;10018;51.230;7.860;2023-04-06T07:10:53;3.00;99.90
19734;DHT22;10018;51.230;7.860;2023-04-06T07:13:21;3.10;99.90
19734;DHT22;10018;51.230;7.860;2023-04-06T07:15:51;3.10;99.90
19734;DHT22;10018;51.230;7.860;2023-04-06T07:18:18;3.10;99.90
19734;DHT22;10018;51.230;7.860;2023-04-06T07:20:44;3.10;99.90
19734;DHT22;10018;51.230;7.860;2023-04-06T07:23:10;3.20;99.90
19734;DHT22;10018;51.230;7.860;2023-04-06T07:25:36;3.40;99.90
19734;DHT22;10018;51.230;7.860;2023-04-06T07:28:02;3.60;99.90
19734;DHT22;10018;51.230;7.860;2023-04-06T07:30:28;3.70;99.90
19734;DHT22;10018;51.230;7.860;2023-04-06T07:32:55;3.90;99.90
19734;DHT22;10018;51.230;7.860;2023-04-06T07:35:23;4.00;99.90
19734;DHT22;10018;51.230;7.860;2023-04-06T07:37:49;4.00;99.90
19734;DHT22;10018;51.230;7.860;2023-04-06T07:40:17;4.10;99.90
19734;DHT22;10018;51.230;7.860;2023-04-06T07:42:43;4.20;99.90
19734;DHT22;10018;51.230;7.860;2023-04-06T07:45:09;4.40;99.90
19734;DHT22;10018;51.230;7.860;2023-04-06T07:47:35;4.60;99.90
19734;DHT22;10018;51.230;7.860;2023-04-06T07:50:01;4.90;99.90
19734;DHT22;10018;51.230;7.860;2023-04-06T07:52:27;5.00;99.90
19734;DHT22;10018;51.230;7.860;2023-04-06T07:54:52;5.20;99.90
19734;DHT22;10018;51.230;7.860;2023-04-06T07:57:18;5.30;99.90
19734;DHT22;10018;51.230;7.860;2023-04-06T07:59:44;5.60;99.90
19734;DHT22;10018;51.230;7.860;2023-04-06T08:02:10;5.80;99.90
19734;DHT22;10018;51.230;7.860;2023-04-06T08:04:36;6.10;99.90
19734;DHT22;10018;51.230;7.860;2023-04-06T08:07:02;6.40;99.90
19734;DHT22;10018;51.230;7.860;2023-04-06T08:09:27;6.60;99.90
19734;DHT22;10018;51.230;7.860;2023-04-06T08:11:53;6.80;99.90
19734;DHT22;10018;51.230;7.860;2023-04-06T08:14:19;7.00;99.90
19734;DHT22;10018;51.230;7.860;2023-04-06T08:16:45;7.10;99.90
19734;DHT22;10018;51.230;7.860;2023-04-06T08:19:11;7.20;99.90
19734;DHT22;10018;51.230;7.860;2023-04-06T08:21:36;7.20;99.90
19734;DHT22;10018;51.230;7.860;2023-04-06T08:24:02;7.40;99.90
19734;DHT22;10018;51.230;7.860;2023-04-06T08:26:28;7.60;99.90
19734;DHT22;10018;51.230;7.860;2023-04-06T08:28:54;7.80;99.90
19734;DHT22;10018;51.230;7.860;2023-04-06T08:31:19;7.80;99.90
19734;DHT22;10018;51.230;7.860;2023-04-06T08:33:45;7.70;99.90
19734;DHT22;10018;51.230;7.860;2023-04-06T08:36:13;7.90;99.90
19734;DHT22;10018;51.230;7.860;2023-04-06T08:38:39;8.10;99.90
19734;DHT22;10018;51.230;7.860;2023-04-06T08:41:12;8.30;99.90
19734;DHT22;10018;51.230;7.860;2023-04-06T08:43:46;8.50;99.90
19734;DHT22;10018;51.230;7.860;2023-04-06T08:46:12;8.40;99.90
19734;DHT22;10018;51.230;7.860;2023-04-06T08:48:42;8.40;99.90
19734;DHT22;10018;51.230;7.860;2023-04-06T08:51:11;8.50;99.90
19734;DHT22;10018;51.230;7.860;2023-04-06T08:53:38;8.60;99.90
19734;DHT22;10018;51.230;7.860;2023-04-06T08:56:07;8.60;99.90
19734;DHT22;10018;51.230;7.860;2023-04-06T08:58:37;8.80;99.90
19734;DHT22;10018;51.230;7.860;2023-04-06T09:01:07;8.90;99.90
19734;DHT22;10018;51.230;7.860;2023-04-06T09:03:37;9.00;99.90
19734;DHT22;10018;51.230;7.860;2023-04-06T09:06:06;9.10;99.90
19734;DHT22;10018;51.230;7.860;2023-04-06T09:08:39;9.20;99.90
19734;DHT22;10018;51.230;7.860;2023-04-06T09:11:05;9.20;99.90
19734;DHT22;10018;51.230;7.860;2023-04-06T09:13:31;9.20;99.90
19734;DHT22;10018;51.230;7.860;2023-04-06T09:16:09;9.40;99.90
19734;DHT22;10018;51.230;7.860;2023-04-06T09:18:37;9.50;99.90
19734;DHT22;10018;51.230;7.860;2023-04-06T09:21:07;9.50;99.90
19734;DHT22;10018;51.230;7.860;2023-04-06T09:23:35;9.60;99.90
19734;DHT22;10018;51.230;7.860;2023-04-06T09:26:13;9.70;99.90
19734;DHT22;10018;51.230;7.860;2023-04-06T09:28:56;9.80;99.90
19734;DHT22;10018;51.230;7.860;2023-04-06T09:31:27;9.90;99.90
19734;DHT22;10018;51.230;7.860;2023-04-06T09:33:54;9.90;99.90
19734;DHT22;10018;51.230;7.860;2023-04-06T09:36:28;10.00;99.90
19734;DHT22;10018;51.230;7.860;2023-04-06T09:39:00;10.10;99.90
19734;DHT22;10018;51.230;7.860;2023-04-06T09:41:31;10.20;99.90
19734;DHT22;10018;51.230;7.860;2023-04-06T09:44:08;10.40;99.90
19734;DHT22;10018;51.230;7.860;2023-04-06T09:46:36;10.50;99.90
19734;DHT22;10018;51.230;7.860;2023-04-06T09:49:03;10.70;99.90
19734;DHT22;10018;51.230;7.860;2023-04-06T09:54:06;10.80;99.90
19734;DHT22;10018;51.230;7.860;2023-04-06T09:57:01;11.10;99.90
19734;DHT22;10018;51.230;7.860;2023-04-06T09:59:58;11.30;99.90
19734;DHT22;10018;51.230;7.860;2023-04-06T10:05:16;11.60;99.90
19734;DHT22;10018;51.230;7.860;2023-04-06T10:07:45;11.60;99.90
19734;DHT22;10018;51.230;7.860;2023-04-06T10:10:12;11.60;99.90
19734;DHT22;10018;51.230;7.860;2023-04-06T10:12:40;11.60;99.90
19734;DHT22;10018;51.230;7.860;2023-04-06T10:15:07;11.80;99.90
19734;DHT22;10018;51.230;7.860;2023-04-06T10:17:33;12.00;99.90
19734;DHT22;10018;51.230;7.860;2023-04-06T10:20:36;11.80;99.90
19734;DHT22;10018;51.230;7.860;2023-04-06T10:25:35;11.50;99.90
19734;DHT22;10018;51.230;7.860;2023-04-06T10:28:05;11.40;99.90
19734;DHT22;10018;51.230;7.860;2023-04-06T10:30:37;11.50;99.90
19734;DHT22;10018;51.230;7.860;2023-04-06T10:33:17;11.50;99.90
19734;DHT22;10018;51.230;7.860;2023-04-06T10:35:43;11.70;99.90
19734;DHT22;10018;51.230;7.860;2023-04-06T10:38:09;11.70;99.90
19734;DHT22;10018;51.230;7.860;2023-04-06T10:40:37;11.80;99.90
19734;DHT22;10018;51.230;7.860;2023-04-06T10:43:10;11.90;99.90
19734;DHT22;10018;51.230;7.860;2023-04-06T10:45:36;12.20;99.90
19734;DHT22;10018;51.230;7.860;2023-04-06T10:48:19;12.10;99.90
19734;DHT22;10018;51.230;7.860;2023-04-06T10:50:50;12.10;99.90
19734;DHT22;10018;51.230;7.860;2023-04-06T10:53:22;12.00;99.90
19734;DHT22;10018;51.230;7.860;2023-04-06T10:55:58;12.20;99.90
19734;DHT22;10018;51.230;7.860;2023-04-06T10:58:26;12.20;99.90
19734;DHT22;10018;51.230;7.860;2023-04-06T11:00:53;12.30;99.90
19734;DHT22;10018;51.230;7.860;2023-04-06T11:03:19;12.50;99.90
19734;DHT22;10018;51.230;7.860;2023-04-06T11:05:47;12.50;99.90
19734;DHT22;10018;51.230;7.860;2023-04-06T11:08:42;12.40;99.90
19734;DHT22;10018;51.230;7.860;2023-04-06T11:11:10;12.20;99.90
19734;DHT22;10018;51.230;7.860;2023-04-06T11:16:06;12.10;99.90
19734;DHT22;10018;51.230;7.860;2023-04-06T11:18:32;12.20;99.90
19734;DHT22;10018;51.230;7.860;2023-04-06T11:20:58;12.40;99.90
19734;DHT22;10018;51.230;7.860;2023-04-06T11:23:24;12.50;99.90
19734;DHT22;10018;51.230;7.860;2023-04-06T11:25:54;12.70;99.90
19734;DHT22;10018;51.230;7.860;2023-04-06T11:28:20;12.50;99.90
19734;DHT22;10018;51.230;7.860;2023-04-06T11:30:46;12.50;99.90
19734;DHT22;10018;51.230;7.860;2023-04-06T11:33:20;12.60;99.90
19734;DHT22;10018;51.230;7.860;2023-04-06T11:35:46;12.70;99.90
19734;DHT22;10018;51.230;7.860;2023-04-06T11:38:14;12.70;99.90
19734;DHT22;10018;51.230;7.860;2023-04-06T11:40:40;12.70;99.90
19734;DHT22;10018;51.230;7.860;2023-04-06T11:43:06;12.70;99.90
19734;DHT22;10018;51.230;7.860;2023-04-06T11:45:42;12.80;99.90
19734;DHT22;10018;51.230;7.860;2023-04-06T11:48:18;12.80;99.90
19734;DHT22;10018;51.230;7.860;2023-04-06T11:50:47;12.70;99.90
19734;DHT22;10018;51.230;7.860;2023-04-06T11:53:16;12.70;99.90
19734;DHT22;10018;51.230;7.860;2023-04-06T11:55:42;12.60;99.90
19734;DHT22;10018;51.230;7.860;2023-04-06T11:58:10;12.60;99.90
19734;DHT22;10018;51.230;7.860;2023-04-06T12:00:36;12.80;99.90
19734;DHT22;10018;51.230;7.860;2023-04-06T12:03:02;12.80;99.90
19734;DHT22;10018;51.230;7.860;2023-04-06T12:05:28;12.80;99.90
19734;DHT22;10018;51.230;7.860;2023-04-06T12:07:57;12.90;99.90
19734;DHT22;10018;51.230;7.860;2023-04-06T12:10:23;12.90;99.90
19734;DHT22;10018;51.230;7.860;2023-04-06T12:12:48;12.80;99.90
19734;DHT22;10018;51.230;7.860;2023-04-06T12:15:14;12.80;99.90
19734;DHT22;10018;51.230;7.860;2023-04-06T12:17:40;13.00;99.90
19734;DHT22;10018;51.230;7.860;2023-04-06T12:20:06;13.10;99.90
19734;DHT22;10018;51.230;7.860;2023-04-06T12:22:31;13.10;99.90
19734;DHT22;10018;51.230;7.860;2023-04-06T12:24:57;12.80;99.90
19734;DHT22;10018;51.230;7.860;2023-04-06T12:27:23;12.60;99.90
19734;DHT22;10018;51.230;7.860;2023-04-06T12:29:51;12.70;99.90
19734;DHT22;10018;51.230;7.860;2023-04-06T12:32:17;12.70;99.90
19734;DHT22;10018;51.230;7.860;2023-04-06T12:34:42;13.00;99.90
19734;DHT22;10018;51.230;7.860;2023-04-06T12:37:08;13.20;99.90
19734;DHT22;10018;51.230;7.860;2023-04-06T12:39:34;13.40;99.90
19734;DHT22;10018;51.230;7.860;2023-04-06T12:41:59;13.40;99.90
19734;DHT22;10018;51.230;7.860;2023-04-06T12:44:25;13.50;99.90
19734;DHT22;10018;51.230;7.860;2023-04-06T12:46:51;13.50;99.90
19734;DHT22;10018;51.230;7.860;2023-04-06T12:49:17;13.60;99.90
19734;DHT22;10018;51.230;7.860;2023-04-06T12:51:44;13.40;99.90
19734;DHT22;10018;51.230;7.860;2023-04-06T12:54:10;13.30;99.90
19734;DHT22;10018;51.230;7.860;2023-04-06T12:56:37;13.10;99.90
19734;DHT22;10018;51.230;7.860;2023-04-06T12:59:03;13.10;99.90
19734;DHT22;10018;51.230;7.860;2023-04-06T13:01:31;13.20;99.90
19734;DHT22;10018;51.230;7.860;2023-04-06T13:03:57;13.10;99.90
19734;DHT22;10018;51.230;7.860;2023-04-06T13:06:24;13.00;99.90
19734;DHT22;10018;51.230;7.860;2023-04-06T13:08:55;13.00;99.90
19734;DHT22;10018;51.230;7.860;2023-04-06T13:11:21;13.30;99.90
19734;DHT22;10018;51.230;7.860;2023-04-06T13:13:49;13.30;99.90
19734;DHT22;10018;51.230;7.860;2023-04-06T13:16:17;13.30;99.90
19734;DHT22;10018;51.230;7.860;2023-04-06T13:18:42;13.30;99.90
19734;DHT22;10018;51.230;7.860;2023-04-06T13:21:12;13.40;99.90
19734;DHT22;10018;51.230;7.860;2023-04-06T13:23:41;13.60;99.90
19734;DHT22;10018;51.230;7.860;2023-04-06T13:26:07;13.60;99.90
19734;DHT22;10018;51.230;7.860;2023-04-06T13:28:34;13.50;99.90
19734;DHT22;10018;51.230;7.860;2023-04-06T13:31:01;13.40;99.90
19734;DHT22;10018;51.230;7.860;2023-04-06T13:33:28;13.50;99.90
19734;DHT22;10018;51.230;7.860;2023-04-06T13:35:55;13.50;99.90
19734;DHT22;10018;51.230;7.860;2023-04-06T13:38:20;13.40;99.90
19734;DHT22;10018;51.230;7.860;2023-04-06T13:40:46;13.50;99.90
19734;DHT22;10018;51.230;7.860;2023-04-06T13:43:12;13.30;99.90
19734;DHT22;10018;51.230;7.860;2023-04-06T13:45:38;13.40;99.90
19734;DHT22;10018;51.230;7.860;2023-04-06T13:48:04;13.40;99.90
19734;DHT22;10018;51.230;7.860;2023-04-06T13:50:30;13.40;99.90
19734;DHT22;10018;51.230;7.860;2023-04-06T13:52:56;13.50;99.90
19734;DHT22;10018;51.230;7.860;2023-04-06T13:55:22;13.40;99.90
19734;DHT22;10018;51.230;7.860;2023-04-06T13:57:50;13.40;99.90
19734;DHT22;10018;51.230;7.860;2023-04-06T14:00:18;13.40;99.90
19734;DHT22;10018;51.230;7.860;2023-04-06T14:02:46;13.20;99.90
19734;DHT22;10018;51.230;7.860;2023-04-06T14:05:12;13.00;99.90
19734;DHT22;10018;51.230;7.860;2023-04-06T14:07:38;13.10;99.90
19734;DHT22;10018;51.230;7.860;2023-04-06T14:10:04;13.10;99.90
19734;DHT22;10018;51.230;7.860;2023-04-06T14:12:30;13.00;99.90
19734;DHT22;10018;51.230;7.860;2023-04-06T14:14:57;13.00;99.90
19734;DHT22;10018;51.230;7.860;2023-04-06T14:17:22;13.00;99.90
19734;DHT22;10018;51.230;7.860;2023-04-06T14:19:48;13.00;99.90
19734;DHT22;10018;51.230;7.860;2023-04-06T14:22:14;12.90;99.90
19734;DHT22;10018;51.230;7.860;2023-04-06T14:24:40;13.00;99.90
19734;DHT22;10018;51.230;7.860;2023-04-06T14:27:06;13.00;99.90
19734;DHT22;10018;51.230;7.860;2023-04-06T14:29:31;13.00;99.90
19734;DHT22;10018;51.230;7.860;2023-04-06T14:31:58;12.90;99.90
19734;DHT22;10018;51.230;7.860;2023-04-06T14:34:28;13.00;99.90
19734;DHT22;10018;51.230;7.860;2023-04-06T14:36:55;12.90;99.90
19734;DHT22;10018;51.230;7.860;2023-04-06T14:39:22;13.00;99.90
19734;DHT22;10018;51.230;7.860;2023-04-06T14:41:48;13.10;99.90
19734;DHT22;10018;51.230;7.860;2023-04-06T14:44:15;13.10;99.90
19734;DHT22;10018;51.230;7.860;2023-04-06T14:46:43;13.10;99.90
19734;DHT22;10018;51.230;7.860;2023-04-06T14:49:08;13.00;99.90
19734;DHT22;10018;51.230;7.860;2023-04-06T14:51:35;12.90;99.90
19734;DHT22;10018;51.230;7.860;2023-04-06T14:54:01;12.80;99.90
19734;DHT22;10018;51.230;7.860;2023-04-06T14:56:28;12.80;99.90
19734;DHT22;10018;51.230;7.860;2023-04-06T14:58:57;12.80;99.90
19734;DHT22;10018;51.230;7.860;2023-04-06T15:01:23;12.80;99.90
19734;DHT22;10018;51.230;7.860;2023-04-06T15:03:51;12.80;99.90
19734;DHT22;10018;51.230;7.860;2023-04-06T15:06:18;12.70;99.90
19734;DHT22;10018;51.230;7.860;2023-04-06T15:08:48;12.60;99.90
19734;DHT22;10018;51.230;7.860;2023-04-06T15:11:13;12.70;99.90
19734;DHT22;10018;51.230;7.860;2023-04-06T15:13:41;12.80;99.90
19734;DHT22;10018;51.230;7.860;2023-04-06T15:16:07;12.60;99.90
19734;DHT22;10018;51.230;7.860;2023-04-06T15:18:36;12.50;99.90
19734;DHT22;10018;51.230;7.860;2023-04-06T15:21:04;12.50;99.90
19734;DHT22;10018;51.230;7.860;2023-04-06T15:23:30;12.50;99.90
19734;DHT22;10018;51.230;7.860;2023-04-06T15:25:59;12.40;99.90
19734;DHT22;10018;51.230;7.860;2023-04-06T15:28:25;12.20;99.90
19734;DHT22;10018;51.230;7.860;2023-04-06T15:30:50;12.20;99.90
19734;DHT22;10018;51.230;7.860;2023-04-06T15:33:19;12.10;99.90
19734;DHT22;10018;51.230;7.860;2023-04-06T15:35:46;12.20;99.90
19734;DHT22;10018;51.230;7.860;2023-04-06T15:38:11;12.20;99.90
19734;DHT22;10018;51.230;7.860;2023-04-06T15:40:47;12.10;99.90
19734;DHT22;10018;51.230;7.860;2023-04-06T15:43:14;12.10;99.90
19734;DHT22;10018;51.230;7.860;2023-04-06T15:45:40;12.10;99.90